sensor_id;sensor_type;location;lat;lon;timestamp;temperature;humidity
20398;DHT22;10358;49.590;11.030;2023-06-05T00:00:57;16.40;59.50
20398;DHT22;10358;49.590;11.030;2023-06-05T00:03:22;16.50;59.80
20398;DHT22;10358;49.590;11.030;2023-06-05T00:05:49;16.40;59.60
20398;DHT22;10358;49.590;11.030;2023-06-05T00:08:15;16.30;59.70
20398;DHT22;10358;49.590;11.030;2023-06-05T00:10:42;16.20;59.80
20398;DHT22;10358;49.590;11.030;2023-06-05T00:13:07;16.00;60.60
20398;DHT22;10358;49.590;11.030;2023-06-05T00:15:33;16.00;60.70
20398;DHT22;10358;49.590;11.030;2023-06-05T00:18:01;15.90;61.20
20398;DHT22;10358;49.590;11.030;2023-06-05T00:20:27;15.90;60.90
20398;DHT22;10358;49.590;11.030;2023-06-05T00:22:53;15.80;61.30
20398;DHT22;10358;49.590;11.030;2023-06-05T00:25:20;15.80;61.40
20398;DHT22;10358;49.590;11.030;2023-06-05T00:27:46;15.70;61.80
20398;DHT22;10358;49.590;11.030;2023-06-05T00:30:12;15.70;61.60
20398;DHT22;10358;49.590;11.030;2023-06-05T00:32:38;15.70;61.90
20398;DHT22;10358;49.590;11.030;2023-06-05T00:35:05;15.60;62.30
20398;DHT22;10358;49.590;11.030;2023-06-05T00:37:31;15.60;62.80
20398;DHT22;10358;49.590;11.030;2023-06-05T00:39:57;15.60;63.00
20398;DHT22;10358;49.590;11.030;2023-06-05T00:42:22;15.50;64.10
20398;DHT22;10358;49.590;11.030;2023-06-05T00:44:48;15.40;63.90
20398;DHT22;10358;49.590;11.030;2023-06-05T00:47:14;15.50;63.90
20398;DHT22;10358;49.590;11.030;2023-06-05T00:49:40;15.40;64.00
20398;DHT22;10358;49.590;11.030;2023-06-05T00:52:06;15.40;64.50
20398;DHT22;10358;49.590;11.030;2023-06-05T00:54:33;15.40;64.70
20398;DHT22;10358;49.590;11.030;2023-06-05T00:56:58;15.50;64.70
20398;DHT22;10358;49.590;11.030;2023-06-05T00:59:26;15.50;64.80
20398;DHT22;10358;49.590;11.030;2023-06-05T01:01:51;15.50;64.70
20398;DHT22;10358;49.590;11.030;2023-06-05T01:04:19;15.50;64.90
20398;DHT22;10358;49.590;11.030;2023-06-05T01:06:45;15.40;64.90
20398;DHT22;10358;49.590;11.030;2023-06-05T01:09:11;15.50;65.00
20398;DHT22;10358;49.590;11.030;2023-06-05T01:11:52;15.40;65.70
20398;DHT22;10358;49.590;11.030;2023-06-05T01:14:21;15.40;65.10
20398;DHT22;10358;49.590;11.030;2023-06-05T01:16:53;15.40;65.10
20398;DHT22;10358;49.590;11.030;2023-06-05T01:19:20;15.30;65.60
20398;DHT22;10358;49.590;11.030;2023-06-05T01:21:47;15.20;66.00
20398;DHT22;10358;49.590;11.030;2023-06-05T01:24:12;15.20;66.00
20398;DHT22;10358;49.590;11.030;2023-06-05T01:27:32;15.20;66.20
20398;DHT22;10358;49.590;11.030;2023-06-05T01:29:58;15.10;66.60
20398;DHT22;10358;49.590;11.030;2023-06-05T01:35:08;14.90;67.10
20398;DHT22;10358;49.590;11.030;2023-06-05T01:37:39;14.70;67.40
20398;DHT22;10358;49.590;11.030;2023-06-05T01:40:17;14.60;68.40
20398;DHT22;10358;49.590;11.030;2023-06-05T01:42:44;14.60;68.00
20398;DHT22;10358;49.590;11.030;2023-06-05T01:45:11;14.50;68.30
20398;DHT22;10358;49.590;11.030;2023-06-05T01:47:38;14.50;68.40
20398;DHT22;10358;49.590;11.030;2023-06-05T01:50:05;14.50;68.40
20398;DHT22;10358;49.590;11.030;2023-06-05T01:52:31;14.50;68.60
20398;DHT22;10358;49.590;11.030;2023-06-05T01:54:57;14.40;68.70
20398;DHT22;10358;49.590;11.030;2023-06-05T01:57:27;14.50;68.80
20398;DHT22;10358;49.590;11.030;2023-06-05T01:59:53;14.40;69.30
20398;DHT22;10358;49.590;11.030;2023-06-05T02:02:20;14.40;69.60
20398;DHT22;10358;49.590;11.030;2023-06-05T02:04:47;14.20;69.80
20398;DHT22;10358;49.590;11.030;2023-06-05T02:07:16;14.10;70.20
20398;DHT22;10358;49.590;11.030;2023-06-05T02:09:42;14.10;70.70
20398;DHT22;10358;49.590;11.030;2023-06-05T02:12:08;14.10;70.70
20398;DHT22;10358;49.590;11.030;2023-06-05T02:14:34;14.10;70.50
20398;DHT22;10358;49.590;11.030;2023-06-05T02:17:04;14.10;70.80
20398;DHT22;10358;49.590;11.030;2023-06-05T02:19:33;14.20;71.00
20398;DHT22;10358;49.590;11.030;2023-06-05T02:21:58;14.20;70.90
20398;DHT22;10358;49.590;11.030;2023-06-05T02:24:24;14.10;70.70
20398;DHT22;10358;49.590;11.030;2023-06-05T02:26:53;14.20;70.90
20398;DHT22;10358;49.590;11.030;2023-06-05T02:29:19;14.20;70.80
20398;DHT22;10358;49.590;11.030;2023-06-05T02:31:45;14.20;70.90
20398;DHT22;10358;49.590;11.030;2023-06-05T02:34:10;14.20;70.70
20398;DHT22;10358;49.590;11.030;2023-06-05T02:36:37;14.20;70.50
20398;DHT22;10358;49.590;11.030;2023-06-05T02:39:03;14.30;70.50
20398;DHT22;10358;49.590;11.030;2023-06-05T02:41:30;14.20;71.10
20398;DHT22;10358;49.590;11.030;2023-06-05T02:43:56;14.10;71.10
20398;DHT22;10358;49.590;11.030;2023-06-05T02:46:21;14.00;71.30
20398;DHT22;10358;49.590;11.030;2023-06-05T02:48:50;13.90;71.70
20398;DHT22;10358;49.590;11.030;2023-06-05T02:51:15;13.70;72.10
20398;DHT22;10358;49.590;11.030;2023-06-05T02:53:41;13.60;72.00
20398;DHT22;10358;49.590;11.030;2023-06-05T02:56:07;13.60;72.20
20398;DHT22;10358;49.590;11.030;2023-06-05T02:58:32;13.60;72.20
20398;DHT22;10358;49.590;11.030;2023-06-05T03:00:59;13.50;72.40
20398;DHT22;10358;49.590;11.030;2023-06-05T03:03:30;13.50;72.80
20398;DHT22;10358;49.590;11.030;2023-06-05T03:06:00;13.50;72.90
20398;DHT22;10358;49.590;11.030;2023-06-05T03:08:36;13.50;73.20
20398;DHT22;10358;49.590;11.030;2023-06-05T03:11:03;13.50;73.50
20398;DHT22;10358;49.590;11.030;2023-06-05T03:13:29;13.40;74.10
20398;DHT22;10358;49.590;11.030;2023-06-05T03:15:55;13.20;75.00
20398;DHT22;10358;49.590;11.030;2023-06-05T03:18:27;13.20;75.50
20398;DHT22;10358;49.590;11.030;2023-06-05T03:20:53;13.10;75.80
20398;DHT22;10358;49.590;11.030;2023-06-05T03:23:26;13.10;76.00
20398;DHT22;10358;49.590;11.030;2023-06-05T03:25:56;13.00;75.80
20398;DHT22;10358;49.590;11.030;2023-06-05T03:28:23;13.00;75.70
20398;DHT22;10358;49.590;11.030;2023-06-05T03:30:49;13.00;75.80
20398;DHT22;10358;49.590;11.030;2023-06-05T03:33:15;12.90;76.70
20398;DHT22;10358;49.590;11.030;2023-06-05T03:35:43;12.90;76.60
20398;DHT22;10358;49.590;11.030;2023-06-05T03:38:10;13.00;77.30
20398;DHT22;10358;49.590;11.030;2023-06-05T03:40:36;13.00;77.10
20398;DHT22;10358;49.590;11.030;2023-06-05T03:43:05;13.00;77.20
20398;DHT22;10358;49.590;11.030;2023-06-05T03:45:30;12.90;77.40
20398;DHT22;10358;49.590;11.030;2023-06-05T03:47:57;13.00;77.40
20398;DHT22;10358;49.590;11.030;2023-06-05T03:50:26;12.90;79.00
20398;DHT22;10358;49.590;11.030;2023-06-05T03:52:54;12.80;78.20
20398;DHT22;10358;49.590;11.030;2023-06-05T03:55:28;12.80;78.70
20398;DHT22;10358;49.590;11.030;2023-06-05T03:58:01;12.80;78.70
20398;DHT22;10358;49.590;11.030;2023-06-05T04:00:28;12.80;78.70
20398;DHT22;10358;49.590;11.030;2023-06-05T04:02:53;12.80;78.70
20398;DHT22;10358;49.590;11.030;2023-06-05T04:05:19;12.90;78.70
20398;DHT22;10358;49.590;11.030;2023-06-05T04:07:44;12.90;79.20
20398;DHT22;10358;49.590;11.030;2023-06-05T04:10:10;12.90;79.50
20398;DHT22;10358;49.590;11.030;2023-06-05T04:12:36;12.90;79.50
20398;DHT22;10358;49.590;11.030;2023-06-05T04:15:02;12.90;79.80
20398;DHT22;10358;49.590;11.030;2023-06-05T04:17:28;13.00;79.40
20398;DHT22;10358;49.590;11.030;2023-06-05T04:19:53;13.10;79.20
20398;DHT22;10358;49.590;11.030;2023-06-05T04:22:19;13.20;78.90
20398;DHT22;10358;49.590;11.030;2023-06-05T04:24:44;13.20;79.40
20398;DHT22;10358;49.590;11.030;2023-06-05T04:27:10;13.30;79.50
20398;DHT22;10358;49.590;11.030;2023-06-05T04:29:36;13.30;79.70
20398;DHT22;10358;49.590;11.030;2023-06-05T04:32:01;13.40;79.80
20398;DHT22;10358;49.590;11.030;2023-06-05T04:34:27;13.50;80.10
20398;DHT22;10358;49.590;11.030;2023-06-05T04:36:52;13.50;79.50
20398;DHT22;10358;49.590;11.030;2023-06-05T04:39:18;13.50;80.60
20398;DHT22;10358;49.590;11.030;2023-06-05T04:41:44;13.60;79.90
20398;DHT22;10358;49.590;11.030;2023-06-05T04:44:14;13.80;79.70
20398;DHT22;10358;49.590;11.030;2023-06-05T04:46:45;13.80;79.60
20398;DHT22;10358;49.590;11.030;2023-06-05T04:49:11;14.00;79.10
20398;DHT22;10358;49.590;11.030;2023-06-05T04:51:37;14.20;78.70
20398;DHT22;10358;49.590;11.030;2023-06-05T04:54:03;14.30;78.10
20398;DHT22;10358;49.590;11.030;2023-06-05T04:56:29;14.40;77.60
20398;DHT22;10358;49.590;11.030;2023-06-05T04:58:55;14.50;77.20
20398;DHT22;10358;49.590;11.030;2023-06-05T05:01:21;14.70;76.80
20398;DHT22;10358;49.590;11.030;2023-06-05T05:03:46;14.80;76.80
20398;DHT22;10358;49.590;11.030;2023-06-05T05:06:15;14.90;76.60
20398;DHT22;10358;49.590;11.030;2023-06-05T05:08:42;15.00;76.90
20398;DHT22;10358;49.590;11.030;2023-06-05T05:11:08;15.20;77.60
20398;DHT22;10358;49.590;11.030;2023-06-05T05:13:34;15.30;77.80
20398;DHT22;10358;49.590;11.030;2023-06-05T05:15:59;15.50;78.00
20398;DHT22;10358;49.590;11.030;2023-06-05T05:18:25;15.60;77.60
20398;DHT22;10358;49.590;11.030;2023-06-05T05:20:51;15.80;77.50
20398;DHT22;10358;49.590;11.030;2023-06-05T05:23:16;15.80;76.90
20398;DHT22;10358;49.590;11.030;2023-06-05T05:25:43;15.90;76.70
20398;DHT22;10358;49.590;11.030;2023-06-05T05:28:08;16.00;76.40
20398;DHT22;10358;49.590;11.030;2023-06-05T05:30:34;16.20;75.80
20398;DHT22;10358;49.590;11.030;2023-06-05T05:33:00;16.30;74.90
20398;DHT22;10358;49.590;11.030;2023-06-05T05:35:26;16.30;74.40
20398;DHT22;10358;49.590;11.030;2023-06-05T05:37:51;16.50;73.50
20398;DHT22;10358;49.590;11.030;2023-06-05T05:40:17;16.50;72.40
20398;DHT22;10358;49.590;11.030;2023-06-05T05:42:43;16.60;71.50
20398;DHT22;10358;49.590;11.030;2023-06-05T05:45:09;16.70;70.60
20398;DHT22;10358;49.590;11.030;2023-06-05T05:47:34;16.90;69.70
20398;DHT22;10358;49.590;11.030;2023-06-05T05:50:00;17.00;68.90
20398;DHT22;10358;49.590;11.030;2023-06-05T05:52:25;17.20;68.10
20398;DHT22;10358;49.590;11.030;2023-06-05T05:54:51;17.30;67.20
20398;DHT22;10358;49.590;11.030;2023-06-05T05:57:17;17.40;67.00
20398;DHT22;10358;49.590;11.030;2023-06-05T05:59:43;17.50;66.40
20398;DHT22;10358;49.590;11.030;2023-06-05T06:02:10;17.60;65.50
20398;DHT22;10358;49.590;11.030;2023-06-05T06:04:37;17.70;65.10
20398;DHT22;10358;49.590;11.030;2023-06-05T06:07:04;17.90;64.60
20398;DHT22;10358;49.590;11.030;2023-06-05T06:09:30;17.90;64.20
20398;DHT22;10358;49.590;11.030;2023-06-05T06:11:56;18.00;64.70
20398;DHT22;10358;49.590;11.030;2023-06-05T06:14:23;18.10;63.60
20398;DHT22;10358;49.590;11.030;2023-06-05T06:16:49;18.30;63.20
20398;DHT22;10358;49.590;11.030;2023-06-05T06:19:15;18.40;63.00
20398;DHT22;10358;49.590;11.030;2023-06-05T06:21:42;18.50;62.90
20398;DHT22;10358;49.590;11.030;2023-06-05T06:24:08;18.60;62.90
20398;DHT22;10358;49.590;11.030;2023-06-05T06:26:34;18.70;62.70
20398;DHT22;10358;49.590;11.030;2023-06-05T06:29:02;18.80;62.30
20398;DHT22;10358;49.590;11.030;2023-06-05T06:31:28;18.90;62.00
20398;DHT22;10358;49.590;11.030;2023-06-05T06:33:53;19.00;61.30
20398;DHT22;10358;49.590;11.030;2023-06-05T06:36:19;19.00;60.80
20398;DHT22;10358;49.590;11.030;2023-06-05T06:38:45;19.10;60.50
20398;DHT22;10358;49.590;11.030;2023-06-05T06:41:10;19.20;60.00
20398;DHT22;10358;49.590;11.030;2023-06-05T06:43:36;19.40;60.00
20398;DHT22;10358;49.590;11.030;2023-06-05T06:46:02;19.50;59.30
20398;DHT22;10358;49.590;11.030;2023-06-05T06:48:27;19.70;59.10
20398;DHT22;10358;49.590;11.030;2023-06-05T06:50:53;19.80;58.20
20398;DHT22;10358;49.590;11.030;2023-06-05T06:53:19;19.90;58.20
20398;DHT22;10358;49.590;11.030;2023-06-05T06:55:44;20.00;57.50
20398;DHT22;10358;49.590;11.030;2023-06-05T06:58:10;20.10;57.40
20398;DHT22;10358;49.590;11.030;2023-06-05T07:00:35;20.20;56.80
20398;DHT22;10358;49.590;11.030;2023-06-05T07:03:01;20.30;55.70
20398;DHT22;10358;49.590;11.030;2023-06-05T07:05:27;20.30;56.00
20398;DHT22;10358;49.590;11.030;2023-06-05T07:07:54;20.50;55.80
20398;DHT22;10358;49.590;11.030;2023-06-05T07:10:20;20.60;55.10
20398;DHT22;10358;49.590;11.030;2023-06-05T07:12:46;20.70;55.30
20398;DHT22;10358;49.590;11.030;2023-06-05T07:15:11;20.80;55.00
20398;DHT22;10358;49.590;11.030;2023-06-05T07:17:37;20.80;54.70
20398;DHT22;10358;49.590;11.030;2023-06-05T07:20:03;21.00;54.10
20398;DHT22;10358;49.590;11.030;2023-06-05T07:22:30;21.00;54.00
20398;DHT22;10358;49.590;11.030;2023-06-05T07:24:56;21.10;53.30
20398;DHT22;10358;49.590;11.030;2023-06-05T07:27:22;21.20;53.40
20398;DHT22;10358;49.590;11.030;2023-06-05T07:29:48;21.20;53.70
20398;DHT22;10358;49.590;11.030;2023-06-05T07:32:13;21.30;54.20
20398;DHT22;10358;49.590;11.030;2023-06-05T07:34:39;21.30;54.40
20398;DHT22;10358;49.590;11.030;2023-06-05T07:37:05;21.40;54.80
20398;DHT22;10358;49.590;11.030;2023-06-05T07:39:32;21.50;55.70
20398;DHT22;10358;49.590;11.030;2023-06-05T07:41:58;21.40;55.90
20398;DHT22;10358;49.590;11.030;2023-06-05T07:44:24;21.50;56.40
20398;DHT22;10358;49.590;11.030;2023-06-05T07:46:50;21.60;56.80
20398;DHT22;10358;49.590;11.030;2023-06-05T07:49:16;21.70;56.90
20398;DHT22;10358;49.590;11.030;2023-06-05T07:51:44;21.80;57.00
20398;DHT22;10358;49.590;11.030;2023-06-05T07:54:12;21.80;57.50
20398;DHT22;10358;49.590;11.030;2023-06-05T07:56:39;22.00;56.90
20398;DHT22;10358;49.590;11.030;2023-06-05T07:59:05;22.00;56.60
20398;DHT22;10358;49.590;11.030;2023-06-05T08:01:35;22.00;56.50
20398;DHT22;10358;49.590;11.030;2023-06-05T08:04:05;22.10;56.40
20398;DHT22;10358;49.590;11.030;2023-06-05T08:06:31;22.20;56.40
20398;DHT22;10358;49.590;11.030;2023-06-05T08:09:00;22.10;56.20
20398;DHT22;10358;49.590;11.030;2023-06-05T08:11:27;22.10;55.60
20398;DHT22;10358;49.590;11.030;2023-06-05T08:13:54;22.00;56.00
20398;DHT22;10358;49.590;11.030;2023-06-05T08:16:20;21.90;56.70
20398;DHT22;10358;49.590;11.030;2023-06-05T08:18:46;21.90;56.30
20398;DHT22;10358;49.590;11.030;2023-06-05T08:21:12;22.00;56.40
20398;DHT22;10358;49.590;11.030;2023-06-05T08:23:38;22.00;56.40
20398;DHT22;10358;49.590;11.030;2023-06-05T08:26:04;22.20;56.80
20398;DHT22;10358;49.590;11.030;2023-06-05T08:28:38;22.30;56.70
20398;DHT22;10358;49.590;11.030;2023-06-05T08:31:04;22.40;56.60
20398;DHT22;10358;49.590;11.030;2023-06-05T08:33:32;22.50;56.40
20398;DHT22;10358;49.590;11.030;2023-06-05T08:35:58;22.60;56.30
20398;DHT22;10358;49.590;11.030;2023-06-05T08:38:23;22.80;56.10
20398;DHT22;10358;49.590;11.030;2023-06-05T08:40:55;22.80;56.00
20398;DHT22;10358;49.590;11.030;2023-06-05T08:43:22;22.90;55.90
20398;DHT22;10358;49.590;11.030;2023-06-05T08:45:51;22.90;55.50
20398;DHT22;10358;49.590;11.030;2023-06-05T08:48:20;22.90;55.30
20398;DHT22;10358;49.590;11.030;2023-06-05T08:50:50;22.90;55.30
20398;DHT22;10358;49.590;11.030;2023-06-05T08:53:17;22.90;55.60
20398;DHT22;10358;49.590;11.030;2023-06-05T08:55:45;23.00;55.30
20398;DHT22;10358;49.590;11.030;2023-06-05T08:58:13;23.00;54.60
20398;DHT22;10358;49.590;11.030;2023-06-05T09:00:38;23.10;54.40
20398;DHT22;10358;49.590;11.030;2023-06-05T09:03:04;23.20;54.50
20398;DHT22;10358;49.590;11.030;2023-06-05T09:05:31;23.30;54.30
20398;DHT22;10358;49.590;11.030;2023-06-05T09:07:58;23.40;53.70
20398;DHT22;10358;49.590;11.030;2023-06-05T09:10:28;23.40;53.30
20398;DHT22;10358;49.590;11.030;2023-06-05T09:13:02;23.40;53.20
20398;DHT22;10358;49.590;11.030;2023-06-05T09:15:32;23.40;53.00
20398;DHT22;10358;49.590;11.030;2023-06-05T09:18:12;23.50;53.30
20398;DHT22;10358;49.590;11.030;2023-06-05T09:20:43;23.50;53.30
20398;DHT22;10358;49.590;11.030;2023-06-05T09:23:25;23.40;53.40
20398;DHT22;10358;49.590;11.030;2023-06-05T09:25:52;23.50;53.50
20398;DHT22;10358;49.590;11.030;2023-06-05T09:28:18;23.60;53.50
20398;DHT22;10358;49.590;11.030;2023-06-05T09:30:57;23.70;53.90
20398;DHT22;10358;49.590;11.030;2023-06-05T09:33:24;23.70;54.00
20398;DHT22;10358;49.590;11.030;2023-06-05T09:36:06;23.70;54.40
20398;DHT22;10358;49.590;11.030;2023-06-05T09:38:33;23.80;54.50
20398;DHT22;10358;49.590;11.030;2023-06-05T09:41:09;23.90;54.60
20398;DHT22;10358;49.590;11.030;2023-06-05T09:43:36;24.10;54.60
20398;DHT22;10358;49.590;11.030;2023-06-05T09:46:09;24.30;54.50
20398;DHT22;10358;49.590;11.030;2023-06-05T09:48:35;24.40;54.20
20398;DHT22;10358;49.590;11.030;2023-06-05T09:51:15;24.60;54.10
20398;DHT22;10358;49.590;11.030;2023-06-05T09:53:46;24.80;53.90
20398;DHT22;10358;49.590;11.030;2023-06-05T09:56:13;24.90;53.40
20398;DHT22;10358;49.590;11.030;2023-06-05T09:58:46;25.10;53.80
20398;DHT22;10358;49.590;11.030;2023-06-05T10:01:15;25.20;53.20
20398;DHT22;10358;49.590;11.030;2023-06-05T10:03:59;25.30;53.00
20398;DHT22;10358;49.590;11.030;2023-06-05T10:06:27;25.40;52.80
20398;DHT22;10358;49.590;11.030;2023-06-05T10:08:53;25.50;52.70
20398;DHT22;10358;49.590;11.030;2023-06-05T10:13:48;25.60;52.30
20398;DHT22;10358;49.590;11.030;2023-06-05T10:16:16;25.70;52.40
20398;DHT22;10358;49.590;11.030;2023-06-05T10:18:49;25.70;52.30
20398;DHT22;10358;49.590;11.030;2023-06-05T10:21:18;25.60;52.50
20398;DHT22;10358;49.590;11.030;2023-06-05T10:24:05;25.60;52.20
20398;DHT22;10358;49.590;11.030;2023-06-05T10:26:54;25.80;52.20
20398;DHT22;10358;49.590;11.030;2023-06-05T10:35:23;26.20;51.40
20398;DHT22;10358;49.590;11.030;2023-06-05T10:40:25;26.40;51.40
20398;DHT22;10358;49.590;11.030;2023-06-05T10:42:51;26.40;51.30
20398;DHT22;10358;49.590;11.030;2023-06-05T10:45:30;26.50;51.40
20398;DHT22;10358;49.590;11.030;2023-06-05T10:47:56;26.50;51.20
20398;DHT22;10358;49.590;11.030;2023-06-05T10:50:23;26.40;51.20
20398;DHT22;10358;49.590;11.030;2023-06-05T10:52:51;26.40;51.70
20398;DHT22;10358;49.590;11.030;2023-06-05T10:55:18;26.30;51.50
20398;DHT22;10358;49.590;11.030;2023-06-05T11:00:21;26.50;51.00
20398;DHT22;10358;49.590;11.030;2023-06-05T11:02:48;26.60;50.80
20398;DHT22;10358;49.590;11.030;2023-06-05T11:05:13;26.60;50.90
20398;DHT22;10358;49.590;11.030;2023-06-05T11:07:40;26.50;50.70
20398;DHT22;10358;49.590;11.030;2023-06-05T11:10:11;26.40;50.90
20398;DHT22;10358;49.590;11.030;2023-06-05T11:17:42;26.60;50.30
20398;DHT22;10358;49.590;11.030;2023-06-05T11:20:54;26.70;50.10
20398;DHT22;10358;49.590;11.030;2023-06-05T11:28:05;27.30;49.50
20398;DHT22;10358;49.590;11.030;2023-06-05T11:30:40;27.50;49.30
20398;DHT22;10358;49.590;11.030;2023-06-05T11:33:10;27.70;49.00
20398;DHT22;10358;49.590;11.030;2023-06-05T11:35:38;27.70;48.90
20398;DHT22;10358;49.590;11.030;2023-06-05T11:38:21;27.70;48.80
20398;DHT22;10358;49.590;11.030;2023-06-05T11:40:47;27.70;49.20
20398;DHT22;10358;49.590;11.030;2023-06-05T11:43:14;27.80;49.00
20398;DHT22;10358;49.590;11.030;2023-06-05T11:45:42;27.90;49.00
20398;DHT22;10358;49.590;11.030;2023-06-05T11:48:14;27.90;48.90
20398;DHT22;10358;49.590;11.030;2023-06-05T11:51:01;27.90;48.90
20398;DHT22;10358;49.590;11.030;2023-06-05T11:53:28;27.80;48.80
20398;DHT22;10358;49.590;11.030;2023-06-05T11:55:54;27.70;48.80
20398;DHT22;10358;49.590;11.030;2023-06-05T11:58:33;27.60;48.90
20398;DHT22;10358;49.590;11.030;2023-06-05T12:01:06;27.60;49.20
20398;DHT22;10358;49.590;11.030;2023-06-05T12:03:33;27.50;49.40
20398;DHT22;10358;49.590;11.030;2023-06-05T12:06:01;27.40;49.60
20398;DHT22;10358;49.590;11.030;2023-06-05T12:08:28;27.30;49.90
20398;DHT22;10358;49.590;11.030;2023-06-05T12:10:59;27.30;50.00
20398;DHT22;10358;49.590;11.030;2023-06-05T12:13:45;27.40;50.10
20398;DHT22;10358;49.590;11.030;2023-06-05T12:16:11;27.40;49.90
20398;DHT22;10358;49.590;11.030;2023-06-05T12:18:37;27.20;49.60
20398;DHT22;10358;49.590;11.030;2023-06-05T12:21:03;27.20;49.60
20398;DHT22;10358;49.590;11.030;2023-06-05T12:23:29;27.20;49.40
20398;DHT22;10358;49.590;11.030;2023-06-05T12:26:07;27.40;49.30
20398;DHT22;10358;49.590;11.030;2023-06-05T12:28:32;27.70;49.00
20398;DHT22;10358;49.590;11.030;2023-06-05T12:30:58;27.90;48.70
20398;DHT22;10358;49.590;11.030;2023-06-05T12:33:24;28.00;48.60
20398;DHT22;10358;49.590;11.030;2023-06-05T12:36:08;27.90;48.50
20398;DHT22;10358;49.590;11.030;2023-06-05T12:38:39;27.90;48.60
20398;DHT22;10358;49.590;11.030;2023-06-05T12:41:05;28.10;48.20
20398;DHT22;10358;49.590;11.030;2023-06-05T12:43:35;28.30;48.00
20398;DHT22;10358;49.590;11.030;2023-06-05T12:46:01;28.40;47.80
20398;DHT22;10358;49.590;11.030;2023-06-05T12:48:27;28.40;47.60
20398;DHT22;10358;49.590;11.030;2023-06-05T12:50:52;28.40;47.60
20398;DHT22;10358;49.590;11.030;2023-06-05T12:53:19;28.40;47.60
20398;DHT22;10358;49.590;11.030;2023-06-05T12:55:45;28.60;47.60
20398;DHT22;10358;49.590;11.030;2023-06-05T12:58:11;28.90;47.40
20398;DHT22;10358;49.590;11.030;2023-06-05T13:00:37;29.00;47.00
20398;DHT22;10358;49.590;11.030;2023-06-05T13:03:03;29.10;46.80
20398;DHT22;10358;49.590;11.030;2023-06-05T13:05:29;28.70;46.80
20398;DHT22;10358;49.590;11.030;2023-06-05T13:07:57;28.30;47.10
20398;DHT22;10358;49.590;11.030;2023-06-05T13:10:23;28.20;47.40
20398;DHT22;10358;49.590;11.030;2023-06-05T13:12:49;28.50;47.10
20398;DHT22;10358;49.590;11.030;2023-06-05T13:15:14;28.80;46.70
20398;DHT22;10358;49.590;11.030;2023-06-05T13:17:40;29.20;46.20
20398;DHT22;10358;49.590;11.030;2023-06-05T13:20:06;29.50;45.70
20398;DHT22;10358;49.590;11.030;2023-06-05T13:22:41;29.40;45.50
20398;DHT22;10358;49.590;11.030;2023-06-05T13:25:07;29.30;45.40
20398;DHT22;10358;49.590;11.030;2023-06-05T13:27:34;29.30;45.30
20398;DHT22;10358;49.590;11.030;2023-06-05T13:30:00;29.20;45.30
20398;DHT22;10358;49.590;11.030;2023-06-05T13:32:25;29.40;45.60
20398;DHT22;10358;49.590;11.030;2023-06-05T13:34:51;29.80;45.30
20398;DHT22;10358;49.590;11.030;2023-06-05T13:37:19;30.20;44.70
20398;DHT22;10358;49.590;11.030;2023-06-05T13:39:45;30.40;44.00
20398;DHT22;10358;49.590;11.030;2023-06-05T13:42:11;30.80;43.40
20398;DHT22;10358;49.590;11.030;2023-06-05T13:44:37;31.30;42.70
20398;DHT22;10358;49.590;11.030;2023-06-05T13:47:02;31.80;42.10
20398;DHT22;10358;49.590;11.030;2023-06-05T13:49:29;32.40;41.30
20398;DHT22;10358;49.590;11.030;2023-06-05T13:51:55;32.60;40.40
20398;DHT22;10358;49.590;11.030;2023-06-05T13:54:20;32.80;39.90
20398;DHT22;10358;49.590;11.030;2023-06-05T13:56:46;33.00;39.60
20398;DHT22;10358;49.590;11.030;2023-06-05T13:59:12;33.10;38.70
20398;DHT22;10358;49.590;11.030;2023-06-05T14:01:37;33.30;38.10
20398;DHT22;10358;49.590;11.030;2023-06-05T14:04:03;33.50;37.60
20398;DHT22;10358;49.590;11.030;2023-06-05T14:06:28;33.90;38.00
20398;DHT22;10358;49.590;11.030;2023-06-05T14:08:54;34.40;37.60
20398;DHT22;10358;49.590;11.030;2023-06-05T14:11:20;35.00;36.90
20398;DHT22;10358;49.590;11.030;2023-06-05T14:13:46;35.20;36.20
20398;DHT22;10358;49.590;11.030;2023-06-05T14:16:11;35.30;36.20
20398;DHT22;10358;49.590;11.030;2023-06-05T14:18:38;35.60;35.60
20398;DHT22;10358;49.590;11.030;2023-06-05T14:21:04;35.80;34.80
20398;DHT22;10358;49.590;11.030;2023-06-05T14:23:30;36.00;34.20
20398;DHT22;10358;49.590;11.030;2023-06-05T14:25:55;36.10;33.80
20398;DHT22;10358;49.590;11.030;2023-06-05T14:28:21;36.30;33.40
20398;DHT22;10358;49.590;11.030;2023-06-05T14:30:48;36.70;33.10
20398;DHT22;10358;49.590;11.030;2023-06-05T14:33:13;37.10;32.90
20398;DHT22;10358;49.590;11.030;2023-06-05T14:35:39;37.30;32.30
20398;DHT22;10358;49.590;11.030;2023-06-05T14:38:05;37.20;32.80
20398;DHT22;10358;49.590;11.030;2023-06-05T14:40:30;37.30;33.10
20398;DHT22;10358;49.590;11.030;2023-06-05T14:42:58;37.50;32.70
20398;DHT22;10358;49.590;11.030;2023-06-05T14:45:24;36.60;33.00
20398;DHT22;10358;49.590;11.030;2023-06-05T14:47:49;35.30;34.10
20398;DHT22;10358;49.590;11.030;2023-06-05T14:50:16;34.30;35.30
20398;DHT22;10358;49.590;11.030;2023-06-05T14:52:42;33.40;36.20
20398;DHT22;10358;49.590;11.030;2023-06-05T14:55:07;33.60;35.90
20398;DHT22;10358;49.590;11.030;2023-06-05T14:57:33;34.40;35.00
20398;DHT22;10358;49.590;11.030;2023-06-05T14:59:59;35.30;34.40
20398;DHT22;10358;49.590;11.030;2023-06-05T15:02:25;35.80;33.10
20398;DHT22;10358;49.590;11.030;2023-06-05T15:04:51;36.20;32.80
20398;DHT22;10358;49.590;11.030;2023-06-05T15:07:20;36.40;31.90
20398;DHT22;10358;49.590;11.030;2023-06-05T15:09:46;36.40;31.90
20398;DHT22;10358;49.590;11.030;2023-06-05T15:12:12;36.50;32.20
20398;DHT22;10358;49.590;11.030;2023-06-05T15:14:38;36.90;32.20
20398;DHT22;10358;49.590;11.030;2023-06-05T15:17:03;36.80;31.80
20398;DHT22;10358;49.590;11.030;2023-06-05T15:19:29;37.10;31.80
20398;DHT22;10358;49.590;11.030;2023-06-05T15:21:55;37.70;31.40
20398;DHT22;10358;49.590;11.030;2023-06-05T15:24:20;38.40;31.60
20398;DHT22;10358;49.590;11.030;2023-06-05T15:26:46;38.50;30.20
20398;DHT22;10358;49.590;11.030;2023-06-05T15:29:12;38.50;30.50
20398;DHT22;10358;49.590;11.030;2023-06-05T15:31:37;37.60;30.80
20398;DHT22;10358;49.590;11.030;2023-06-05T15:34:03;36.20;32.50
20398;DHT22;10358;49.590;11.030;2023-06-05T15:36:28;34.90;33.00
20398;DHT22;10358;49.590;11.030;2023-06-05T15:38:54;33.90;34.30
20398;DHT22;10358;49.590;11.030;2023-06-05T15:41:21;32.90;36.20
20398;DHT22;10358;49.590;11.030;2023-06-05T15:43:47;31.90;37.90